Time;durP1;ratioP1;P1;durP2;ratioP2;P2;SDS_P1;SDS_P2;PMS_P1;PMS_P2;Temp;Humidity;BMP_temperature;BMP_pressure;BME280_temperature;BME280_humidity;BME280_pressure;Samples;Min_cycle;Max_cycle;Signal;HPM_P1;HPM_P2
2023/04/04 00:01:23;;;;;;;5.15;3.58;;;1.70;99.90;;;;;;4959660;22;94496;-31
2023/04/04 00:03:50;;;;;;;5.85;3.53;;;1.70;99.90;;;;;;4956474;28;94043;-32
2023/04/04 00:06:20;;;;;;;5.85;4.00;;;1.60;99.90;;;;;;4956917;28;93315;-32
2023/04/04 00:08:46;;;;;;;5.90;3.83;;;1.60;99.90;;;;;;4956770;28;92192;-33
2023/04/04 00:11:12;;;;;;;6.65;3.80;;;1.60;99.90;;;;;;4955120;28;94850;-34
2023/04/04 00:13:38;;;;;;;4.50;3.17;;;1.60;99.90;;;;;;4956591;28;93943;-34
2023/04/04 00:16:05;;;;;;;6.03;3.92;;;1.50;99.90;;;;;;4956126;28;94273;-30
2023/04/04 00:18:31;;;;;;;4.97;3.17;;;1.50;99.90;;;;;;4956702;28;93920;-38
2023/04/04 00:20:57;;;;;;;7.15;3.50;;;1.50;99.90;;;;;;4955523;28;94292;-34
2023/04/04 00:23:23;;;;;;;3.85;3.55;;;1.50;99.90;;;;;;4956296;28;95721;-31
2023/04/04 00:25:51;;;;;;;5.78;4.40;;;1.50;99.90;;;;;;4955538;28;93833;-37
2023/04/04 00:28:20;;;;;;;5.45;3.83;;;1.50;99.90;;;;;;4956339;28;93061;-35
2023/04/04 00:30:47;;;;;;;8.98;5.00;;;1.40;99.90;;;;;;4955501;28;94470;-34
2023/04/04 00:33:13;;;;;;;8.60;5.45;;;1.40;99.90;;;;;;4956171;28;94090;-32
2023/04/04 00:35:38;;;;;;;4.28;3.72;;;1.40;99.90;;;;;;4955847;28;94007;-34
2023/04/04 00:38:04;;;;;;;5.93;3.63;;;1.40;99.90;;;;;;4956664;28;92199;-33
2023/04/04 00:40:30;;;;;;;9.40;4.72;;;1.30;99.90;;;;;;4955090;28;94899;-35
2023/04/04 00:42:59;;;;;;;10.70;4.13;;;1.30;99.90;;;;;;4956233;28;93898;-34
2023/04/04 00:45:26;;;;;;;6.28;5.13;;;1.30;99.90;;;;;;4956290;28;95720;-30
2023/04/04 00:47:53;;;;;;;9.02;5.40;;;1.20;99.90;;;;;;4956144;28;92364;-35
2023/04/04 00:50:19;;;;;;;8.27;4.30;;;1.20;99.90;;;;;;4955213;28;94761;-31
2023/04/04 00:52:45;;;;;;;4.95;3.15;;;1.20;99.90;;;;;;4955603;28;94536;-30
2023/04/04 00:55:11;;;;;;;6.28;3.88;;;1.10;99.90;;;;;;4955744;28;94522;-33
2023/04/04 00:57:37;;;;;;;5.43;4.22;;;1.10;99.90;;;;;;4938585;28;94275;-38
2023/04/04 01:00:05;;;;;;;4.53;4.05;;;1.10;99.90;;;;;;4954961;28;95368;-30
2023/04/04 01:02:31;;;;;;;12.50;4.68;;;1.20;99.90;;;;;;4955407;28;95230;-36
2023/04/04 01:04:56;;;;;;;4.60;3.97;;;1.10;99.90;;;;;;4955482;28;93114;-36
2023/04/04 01:07:22;;;;;;;5.03;4.10;;;1.10;99.90;;;;;;4955832;28;92969;-32
2023/04/04 01:09:49;;;;;;;6.30;5.70;;;1.10;99.90;;;;;;4954895;28;95378;-32
2023/04/04 01:12:15;;;;;;;5.65;4.07;;;1.00;99.90;;;;;;4955980;28;95041;-33
2023/04/04 01:14:40;;;;;;;6.22;4.07;;;1.00;99.90;;;;;;4955205;28;93524;-32
2023/04/04 01:17:06;;;;;;;6.45;3.92;;;1.00;99.90;;;;;;4955343;28;93161;-33
2023/04/04 01:19:47;;;;;;;6.38;5.03;;;1.00;99.90;;;;;;4955272;28;93725;-32
2023/04/04 01:22:14;;;;;;;9.02;4.53;;;1.00;99.90;;;;;;4956217;28;94591;-31
2023/04/04 01:24:42;;;;;;;11.73;5.32;;;0.90;99.90;;;;;;4955752;28;94298;-35
2023/04/04 01:27:07;;;;;;;5.03;4.53;;;0.90;99.90;;;;;;4955735;28;93327;-32
2023/04/04 01:29:33;;;;;;;11.95;5.15;;;0.90;99.90;;;;;;4955614;28;94771;-32
2023/04/04 01:32:10;;;;;;;6.45;4.50;;;1.00;99.90;;;;;;4955882;28;94548;-32
2023/04/04 01:34:45;;;;;;;4.88;3.92;;;0.90;99.90;;;;;;4942871;28;95363;-32
2023/04/04 01:37:42;;;;;;;4.85;4.43;;;1.00;99.90;;;;;;4955402;28;94369;-31
2023/04/04 01:40:33;;;;;;;18.25;4.80;;;1.00;99.90;;;;;;4955363;28;94467;-31
2023/04/04 01:43:00;;;;;;;4.40;3.92;;;1.00;99.90;;;;;;4945911;28;94594;-33
2023/04/04 01:45:26;;;;;;;3.95;3.47;;;1.00;99.90;;;;;;4938368;28;92879;-33
2023/04/04 01:47:52;;;;;;;6.72;6.05;;;1.20;99.90;;;;;;4955744;28;93446;-36
2023/04/04 01:50:17;;;;;;;4.63;4.07;;;1.20;99.90;;;;;;4958654;28;92997;-34
2023/04/04 01:52:43;;;;;;;6.63;3.92;;;1.20;99.90;;;;;;4958818;28;94329;-32
2023/04/04 01:55:09;;;;;;;6.30;3.03;;;1.20;99.90;;;;;;4958562;28;92484;-31
2023/04/04 01:57:35;;;;;;;4.63;3.90;;;1.20;99.90;;;;;;4941351;28;93743;-31
2023/04/04 02:00:00;;;;;;;6.80;4.03;;;1.30;99.90;;;;;;4956632;28;95515;-33
2023/04/04 02:02:26;;;;;;;7.93;3.45;;;1.20;99.90;;;;;;4958079;28;95392;-38
2023/04/04 02:04:52;;;;;;;8.48;4.28;;;1.20;99.90;;;;;;4957394;28;93392;-34
2023/04/04 02:07:18;;;;;;;5.80;3.17;;;1.20;99.90;;;;;;4958114;28;93030;-35
2023/04/04 02:09:44;;;;;;;5.82;5.07;;;1.20;99.90;;;;;;4958478;28;94263;-35
2023/04/04 02:12:09;;;;;;;5.82;3.75;;;1.10;99.90;;;;;;4957674;28;94647;-37
2023/04/04 02:14:35;;;;;;;7.13;4.88;;;1.10;99.90;;;;;;4958167;28;93343;-32
2023/04/04 02:17:00;;;;;;;12.45;4.35;;;1.00;99.90;;;;;;4958072;28;91931;-34
2023/04/04 02:19:26;;;;;;;6.95;3.85;;;1.00;99.90;;;;;;4957417;28;94799;-33
2023/04/04 02:21:52;;;;;;;4.20;3.20;;;1.00;99.90;;;;;;4958076;28;94196;-31
2023/04/04 02:24:18;;;;;;;6.18;4.38;;;1.00;99.90;;;;;;4957631;28;93548;-32
2023/04/04 02:26:43;;;;;;;4.70;3.10;;;1.00;99.90;;;;;;4957927;28;93577;-32
2023/04/04 02:29:09;;;;;;;4.63;3.63;;;1.10;99.90;;;;;;4957287;28;94689;-32
2023/04/04 02:31:34;;;;;;;7.47;4.82;;;1.20;99.90;;;;;;4957588;28;95042;-39
2023/04/04 02:34:00;;;;;;;6.40;4.30;;;1.30;99.90;;;;;;4958542;28;93343;-34
2023/04/04 02:36:26;;;;;;;4.22;3.08;;;1.30;99.90;;;;;;4957825;28;93844;-38
2023/04/04 02:38:52;;;;;;;11.73;4.97;;;1.20;99.90;;;;;;4940021;28;95230;-31
2023/04/04 02:41:17;;;;;;;18.23;4.50;;;1.20;99.90;;;;;;4957621;28;94743;-35
2023/04/04 02:43:43;;;;;;;5.57;4.88;;;1.20;99.90;;;;;;4957494;28;94334;-34
2023/04/04 02:46:09;;;;;;;7.10;4.90;;;1.20;99.90;;;;;;4957702;28;93562;-36
2023/04/04 02:48:35;;;;;;;5.88;3.35;;;1.10;99.90;;;;;;4957177;28;95506;-34
2023/04/04 02:51:01;;;;;;;4.72;4.28;;;1.00;99.90;;;;;;4939893;28;95554;-31
2023/04/04 02:53:27;;;;;;;4.97;3.67;;;0.90;99.90;;;;;;4939843;28;93704;-37
2023/04/04 02:55:53;;;;;;;4.70;3.45;;;1.00;99.90;;;;;;4957691;28;94243;-30
2023/04/04 02:58:19;;;;;;;6.80;4.03;;;1.00;99.90;;;;;;4957361;28;94583;-31
2023/04/04 03:00:46;;;;;;;4.68;4.22;;;0.80;99.90;;;;;;4955737;28;94597;-31
2023/04/04 03:03:11;;;;;;;3.78;3.47;;;0.70;99.90;;;;;;4957743;28;93125;-31
2023/04/04 03:05:37;;;;;;;5.72;3.40;;;0.70;99.90;;;;;;4957405;28;92979;-33
2023/04/04 03:08:03;;;;;;;4.47;3.30;;;0.60;99.90;;;;;;4956404;28;94673;-39
2023/04/04 03:10:30;;;;;;;3.53;3.17;;;0.60;99.90;;;;;;4957769;28;96024;-31
2023/04/04 03:12:56;;;;;;;5.60;4.13;;;0.60;99.90;;;;;;4956299;28;95137;-36
2023/04/04 03:15:22;;;;;;;6.97;2.88;;;0.60;99.90;;;;;;4957311;28;93226;-35
2023/04/04 03:17:47;;;;;;;4.43;3.78;;;0.50;99.90;;;;;;4956976;28;95190;-33
2023/04/04 03:20:16;;;;;;;4.00;3.45;;;0.50;99.90;;;;;;4956600;28;94749;-32
2023/04/04 03:22:42;;;;;;;3.90;3.17;;;0.50;99.90;;;;;;4956226;28;94344;-38
2023/04/04 03:25:08;;;;;;;5.53;2.95;;;0.50;99.90;;;;;;4956736;28;94280;-33
2023/04/04 03:27:33;;;;;;;5.78;3.83;;;0.40;99.90;;;;;;4956663;28;95553;-33
2023/04/04 03:30:00;;;;;;;7.47;3.22;;;0.40;99.90;;;;;;4957196;28;94315;-33
2023/04/04 03:32:26;;;;;;;4.65;3.80;;;0.40;99.90;;;;;;4957393;28;93155;-38
2023/04/04 03:34:52;;;;;;;6.88;3.78;;;0.30;99.90;;;;;;4957145;28;92776;-31
2023/04/04 03:37:18;;;;;;;6.25;3.10;;;0.30;99.90;;;;;;4956408;28;95705;-35
2023/04/04 03:39:43;;;;;;;11.13;3.85;;;0.30;99.90;;;;;;4956373;28;96927;-32
2023/04/04 03:42:09;;;;;;;4.95;3.65;;;0.30;99.90;;;;;;4939327;28;94320;-30
2023/04/04 03:44:38;;;;;;;4.20;3.13;;;0.30;99.90;;;;;;4956648;28;92781;-36
2023/04/04 03:47:03;;;;;;;;;;;0.20;99.90;;;;;;4956596;28;95510;-37
2023/04/04 03:49:31;;;;;;;3.53;3.22;;;0.20;99.90;;;;;;4958268;28;94033;-39
2023/04/04 03:51:57;;;;;;;3.13;2.83;;;0.20;99.90;;;;;;4957037;28;94984;-30
2023/04/04 03:54:22;;;;;;;6.95;5.18;;;0.20;99.90;;;;;;4956924;28;93856;-32
2023/04/04 03:56:48;;;;;;;4.00;3.28;;;0.20;99.90;;;;;;4955994;28;94395;-31
2023/04/04 03:59:14;;;;;;;5.05;3.10;;;0.10;99.90;;;;;;4955859;28;94799;-32
2023/04/04 04:01:40;;;;;;;6.95;3.42;;;0.10;99.90;;;;;;4955405;28;96265;-37
2023/04/04 04:04:05;;;;;;;4.43;3.90;;;0.10;99.90;;;;;;4956339;28;93453;-32
2023/04/04 04:06:31;;;;;;;4.53;2.42;;;0.10;99.90;;;;;;4955892;28;94781;-33
2023/04/04 04:08:57;;;;;;;3.88;3.58;;;0.10;99.90;;;;;;4956686;28;94291;-34
2023/04/04 04:11:22;;;;;;;4.97;3.53;;;0.00;99.90;;;;;;4955194;28;93465;-36
2023/04/04 04:13:48;;;;;;;5.88;3.22;;;0.00;99.90;;;;;;4956824;28;94626;-32
2023/04/04 04:16:14;;;;;;;4.28;3.28;;;0.00;99.90;;;;;;4938483;28;95016;-32
2023/04/04 04:18:39;;;;;;;5.38;3.25;;;0.00;99.90;;;;;;4956124;28;94606;-36
2023/04/04 04:21:05;;;;;;;8.90;3.45;;;0.00;99.90;;;;;;4956568;28;93577;-32
2023/04/04 04:23:31;;;;;;;5.93;4.38;;;0.00;99.90;;;;;;4955767;28;95036;-33
2023/04/04 04:25:56;;;;;;;3.97;3.35;;;0.00;99.90;;;;;;4955677;28;95532;-31
2023/04/04 04:28:23;;;;;;;4.25;2.38;;;-0.10;99.90;;;;;;4955725;28;95508;-33
2023/04/04 04:30:49;;;;;;;4.18;3.05;;;-0.10;99.90;;;;;;4956362;28;93252;-30
2023/04/04 04:33:14;;;;;;;5.28;2.70;;;-0.10;99.90;;;;;;4956677;28;93552;-35
2023/04/04 04:35:40;;;;;;;5.22;3.08;;;-0.20;99.90;;;;;;4955267;28;94932;-30
2023/04/04 04:38:06;;;;;;;5.30;3.88;;;-0.20;99.90;;;;;;4956306;28;95038;-32
2023/04/04 04:40:33;;;;;;;3.70;3.30;;;-0.20;99.90;;;;;;4955668;28;94255;-37
2023/04/04 04:42:58;;;;;;;4.35;3.63;;;-0.20;99.90;;;;;;4956495;28;93211;-38
2023/04/04 04:45:24;;;;;;;6.43;4.40;;;-0.30;99.90;;;;;;4955654;28;93950;-31
2023/04/04 04:47:50;;;;;;;5.55;3.22;;;-0.30;99.90;;;;;;4955379;28;94270;-32
2023/04/04 04:50:16;;;;;;;4.47;4.10;;;-0.30;99.90;;;;;;4956140;28;94813;-32
2023/04/04 04:52:43;;;;;;;3.90;3.50;;;-0.30;99.90;;;;;;4955746;28;94240;-31
2023/04/04 04:55:09;;;;;;;6.22;3.60;;;-0.40;99.90;;;;;;4955409;28;94469;-33
2023/04/04 04:57:35;;;;;;;7.80;3.70;;;-0.30;99.90;;;;;;4955707;28;94367;-32
2023/04/04 05:00:03;;;;;;;5.97;3.75;;;-0.40;99.90;;;;;;4955175;28;93376;-33
2023/04/04 05:02:29;;;;;;;8.10;3.92;;;-0.40;99.90;;;;;;4956000;28;94262;-32
2023/04/04 05:04:55;;;;;;;3.78;3.40;;;-0.40;99.90;;;;;;4954864;28;95211;-31
2023/04/04 05:07:22;;;;;;;6.53;2.55;;;-0.50;99.90;;;;;;4956016;28;93253;-31
2023/04/04 05:09:47;;;;;;;5.05;3.90;;;-0.50;99.90;;;;;;4955591;28;93760;-32
2023/04/04 05:12:13;;;;;;;9.90;4.32;;;-0.50;99.90;;;;;;4955601;28;93158;-34
2023/04/04 05:14:39;;;;;;;4.18;3.78;;;-0.50;99.90;;;;;;4954365;28;95877;-36
2023/04/04 05:17:04;;;;;;;5.30;3.95;;;-0.40;99.90;;;;;;4955051;28;95455;-30
2023/04/04 05:19:30;;;;;;;3.90;3.50;;;-0.40;99.90;;;;;;4956101;28;92580;-40
2023/04/04 05:21:56;;;;;;;3.85;3.28;;;-0.40;99.90;;;;;;4954857;28;94818;-39
2023/04/04 05:24:22;;;;;;;4.55;4.13;;;-0.40;99.90;;;;;;4958485;28;94249;-30
2023/04/04 05:26:48;;;;;;;6.63;3.72;;;-0.40;99.90;;;;;;4958292;28;94045;-31
2023/04/04 05:29:13;;;;;;;10.25;3.85;;;-0.40;99.90;;;;;;4958927;28;94036;-33
2023/04/04 05:31:39;;;;;;;7.45;4.65;;;-0.30;99.90;;;;;;4959065;28;92448;-34
2023/04/04 05:34:08;;;;;;;6.18;4.13;;;-0.30;99.90;;;;;;4959024;28;94794;-32
2023/04/04 05:36:34;;;;;;;;;;;-0.30;99.90;;;;;;4959868;28;94382;-40
2023/04/04 05:39:00;;;;;;;4.32;3.88;;;-0.30;99.90;;;;;;4959932;28;94470;-33
2023/04/04 05:41:26;;;;;;;4.18;3.75;;;-0.30;99.90;;;;;;4958290;28;92172;-33
2023/04/04 05:43:51;;;;;;;6.22;3.72;;;-0.30;99.90;;;;;;4958610;28;94710;-31
2023/04/04 05:46:17;;;;;;;6.97;4.32;;;-0.20;99.90;;;;;;4958315;28;94849;-31
2023/04/04 05:48:43;;;;;;;5.60;4.05;;;-0.20;99.90;;;;;;4959418;28;94072;-33
2023/04/04 05:51:08;;;;;;;6.25;4.78;;;-0.10;99.90;;;;;;4958230;28;94413;-33
2023/04/04 05:53:34;;;;;;;6.00;5.10;;;-0.10;99.90;;;;;;4958992;28;95630;-38
2023/04/04 05:56:00;;;;;;;7.68;4.47;;;0.00;99.90;;;;;;4958851;28;94435;-29
2023/04/04 05:58:26;;;;;;;6.45;5.22;;;0.00;99.90;;;;;;4958036;28;93470;-31
2023/04/04 06:00:51;;;;;;;10.10;5.95;;;0.10;99.90;;;;;;4956117;28;93322;-35
2023/04/04 06:03:17;;;;;;;7.75;4.13;;;0.20;99.90;;;;;;4955375;28;95564;-35
2023/04/04 06:05:48;;;;;;;3.65;3.25;;;0.30;99.90;;;;;;4956475;28;92928;-35
2023/04/04 06:08:13;;;;;;;7.05;4.60;;;0.40;99.90;;;;;;4956825;28;94210;-33
2023/04/04 06:10:39;;;;;;;11.10;3.78;;;0.40;99.90;;;;;;4956606;28;93911;-36
2023/04/04 06:13:05;;;;;;;11.57;6.43;;;0.50;99.90;;;;;;4938258;28;94582;-30
2023/04/04 06:15:30;;;;;;;6.30;3.75;;;0.50;99.90;;;;;;4956453;28;94405;-38
2023/04/04 06:17:56;;;;;;;3.75;3.38;;;0.60;99.90;;;;;;4956383;28;94841;-34
2023/04/04 06:20:22;;;;;;;7.28;4.88;;;0.60;99.90;;;;;;4957303;28;92790;-35
2023/04/04 06:22:48;;;;;;;5.15;3.90;;;0.70;99.90;;;;;;4956434;28;93386;-31
2023/04/04 06:25:14;;;;;;;14.18;6.90;;;0.70;99.90;;;;;;4955366;28;94170;-32
2023/04/04 06:27:39;;;;;;;5.03;3.70;;;0.80;99.90;;;;;;4938353;28;95643;-37
2023/04/04 06:30:06;;;;;;;8.57;5.30;;;0.70;99.90;;;;;;4955713;28;93019;-37
2023/04/04 06:32:32;;;;;;;4.57;3.90;;;0.80;99.90;;;;;;4955912;28;94369;-39
2023/04/04 06:34:58;;;;;;;4.28;3.65;;;0.80;99.90;;;;;;4955574;28;94151;-36
2023/04/04 06:37:24;;;;;;;10.48;5.40;;;0.90;99.90;;;;;;4955821;28;92985;-34
2023/04/04 06:39:49;;;;;;;4.90;4.15;;;0.90;99.90;;;;;;4957087;28;94807;-31
2023/04/04 06:42:15;;;;;;;8.85;3.83;;;1.00;99.90;;;;;;4955215;28;95772;-32
2023/04/04 06:44:41;;;;;;;4.78;4.03;;;0.90;99.90;;;;;;4956310;28;94492;-30
2023/04/04 06:47:06;;;;;;;5.20;4.32;;;0.90;99.90;;;;;;4955913;28;93507;-34
2023/04/04 06:49:32;;;;;;;5.68;3.50;;;1.00;99.90;;;;;;4955659;28;94840;-34
2023/04/04 06:51:59;;;;;;;7.90;4.70;;;1.10;99.90;;;;;;4954755;28;95522;-31
2023/04/04 06:54:25;;;;;;;18.15;4.72;;;1.20;99.90;;;;;;4955278;28;96075;-31
2023/04/04 06:56:51;;;;;;;6.05;3.92;;;1.30;99.90;;;;;;4955563;28;95105;-33
2023/04/04 06:59:17;;;;;;;8.90;3.88;;;1.50;99.90;;;;;;4955155;28;93872;-31
2023/04/04 07:01:43;;;;;;;6.57;4.88;;;1.60;99.90;;;;;;4954003;28;95912;-31
2023/04/04 07:04:09;;;;;;;7.25;4.05;;;1.90;99.90;;;;;;4955173;28;95321;-34
2023/04/04 07:06:35;;;;;;;5.05;4.60;;;1.90;99.90;;;;;;4955873;28;93582;-33
2023/04/04 07:09:03;;;;;;;6.57;4.35;;;2.20;99.90;;;;;;4937627;28;92093;-33
2023/04/04 07:11:29;;;;;;;5.07;4.53;;;2.30;99.90;;;;;;4955423;28;94315;-34
2023/04/04 07:13:55;;;;;;;7.53;4.93;;;2.40;99.90;;;;;;4955306;28;94425;-31
2023/04/04 07:16:20;;;;;;;6.78;4.55;;;2.30;99.90;;;;;;4954834;28;93491;-30
2023/04/04 07:18:46;;;;;;;14.80;4.82;;;2.40;99.90;;;;;;4955630;28;94315;-35
2023/04/04 07:21:12;;;;;;;7.80;5.05;;;2.60;99.90;;;;;;4954304;28;95428;-33
2023/04/04 07:23:38;;;;;;;5.53;5.03;;;2.70;99.90;;;;;;4955334;28;94630;-34
2023/04/04 07:26:03;;;;;;;14.52;4.53;;;3.00;99.90;;;;;;4954964;28;93485;-32
2023/04/04 07:28:30;;;;;;;4.35;3.53;;;3.00;99.90;;;;;;4955577;28;93455;-32
2023/04/04 07:30:59;;;;;;;7.03;4.03;;;3.20;99.90;;;;;;4954843;28;96037;-34
2023/04/04 07:33:26;;;;;;;6.15;3.92;;;3.40;99.90;;;;;;4955004;28;95002;-32
2023/04/04 07:35:52;;;;;;;5.28;4.88;;;3.60;99.90;;;;;;4954768;28;92946;-31
2023/04/04 07:38:17;;;;;;;14.95;4.45;;;3.70;99.90;;;;;;4954815;28;93175;-31
2023/04/04 07:40:43;;;;;;;3.42;3.05;;;3.90;99.90;;;;;;4954469;28;96181;-31
2023/04/04 07:43:09;;;;;;;4.35;3.33;;;3.80;99.90;;;;;;4955220;28;95075;-33
2023/04/04 07:45:35;;;;;;;4.80;3.33;;;3.90;99.90;;;;;;4954585;28;93207;-32
2023/04/04 07:48:01;;;;;;;6.75;5.28;;;4.10;99.90;;;;;;4955300;28;94509;-32
2023/04/04 07:50:27;;;;;;;4.95;3.92;;;4.30;99.90;;;;;;4954576;28;94784;-35
2023/04/04 07:52:57;;;;;;;4.45;3.45;;;4.30;99.90;;;;;;4954443;28;94507;-31
2023/04/04 07:55:24;;;;;;;5.93;4.10;;;4.40;99.90;;;;;;4954566;28;93534;-36
2023/04/04 07:57:51;;;;;;;4.05;3.42;;;4.80;99.90;;;;;;4954634;28;92230;-34
2023/04/04 08:00:20;;;;;;;3.90;3.38;;;5.30;99.90;;;;;;4953994;28;94597;-32
2023/04/04 08:02:52;;;;;;;9.90;3.33;;;5.30;99.90;;;;;;4953715;28;94427;-37
2023/04/04 08:05:18;;;;;;;6.60;3.45;;;5.10;99.90;;;;;;4941581;28;94101;-35
2023/04/04 08:07:44;;;;;;;4.03;3.28;;;5.30;99.90;;;;;;4954001;28;93280;-32
2023/04/04 08:10:10;;;;;;;4.10;3.80;;;5.80;98.80;;;;;;4955200;28;96340;-31
2023/04/04 08:12:35;;;;;;;4.28;3.47;;;5.50;94.10;;;;;;4953788;28;95239;-34
2023/04/04 08:15:01;;;;;;;3.65;3.35;;;5.40;99.60;;;;;;4954939;28;92898;-35
2023/04/04 08:17:27;;;;;;;5.05;3.08;;;5.70;89.80;;;;;;4953345;28;93094;-33
2023/04/04 08:19:53;;;;;;;8.35;3.63;;;5.70;88.80;;;;;;4954847;28;94284;-33
2023/04/04 08:22:18;;;;;;;3.25;2.95;;;5.90;94.70;;;;;;4954046;28;94803;-35
2023/04/04 08:24:45;;;;;;;4.22;2.95;;;5.80;90.30;;;;;;4954151;28;93914;-36
2023/04/04 08:27:10;;;;;;;6.47;4.00;;;6.40;89.00;;;;;;4954432;28;93037;-35
2023/04/04 08:29:36;;;;;;;4.03;3.00;;;6.40;87.40;;;;;;4953227;28;95138;-32
2023/04/04 08:32:02;;;;;;;3.35;3.05;;;6.30;85.20;;;;;;4953960;28;95339;-36
2023/04/04 08:34:28;;;;;;;4.20;2.80;;;6.30;83.00;;;;;;4954645;28;95663;-31
2023/04/04 08:36:54;;;;;;;10.00;4.13;;;6.50;76.00;;;;;;4953552;28;92642;-33
2023/04/04 08:39:19;;;;;;;3.97;3.00;;;6.50;73.40;;;;;;4953568;28;94660;-34
2023/04/04 08:41:45;;;;;;;6.72;2.88;;;6.80;78.80;;;;;;4953439;28;94113;-35
2023/04/04 08:44:19;;;;;;;5.72;4.25;;;6.90;74.30;;;;;;4954839;28;93574;-32
2023/04/04 08:46:46;;;;;;;3.45;3.15;;;6.80;74.60;;;;;;4953846;28;91752;-33
2023/04/04 08:49:14;;;;;;;4.32;2.72;;;6.80;76.30;;;;;;4953989;28;95095;-32
2023/04/04 08:51:43;;;;;;;2.92;2.50;;;7.30;76.70;;;;;;4953445;28;94868;-31
2023/04/04 08:54:10;;;;;;;3.63;2.70;;;7.20;70.20;;;;;;4953711;28;95056;-34
2023/04/04 08:56:35;;;;;;;5.18;3.28;;;7.20;76.30;;;;;;4954860;28;94168;-33
2023/04/04 08:59:01;;;;;;;3.97;2.92;;;7.50;76.30;;;;;;4957443;28;94620;-35
2023/04/04 09:01:28;;;;;;;3.75;2.83;;;7.30;77.70;;;;;;4957755;28;92731;-32
2023/04/04 09:03:56;;;;;;;3.70;3.38;;;7.30;72.80;;;;;;4957089;28;94296;-31
2023/04/04 09:06:23;;;;;;;3.07;2.73;;;7.30;73.20;;;;;;4938863;28;92257;-32
2023/04/04 09:08:52;;;;;;;7.85;3.15;;;7.50;71.80;;;;;;4957832;28;95397;-32
2023/04/04 09:11:20;;;;;;;5.95;2.85;;;7.70;73.10;;;;;;4940314;28;94585;-31
2023/04/04 09:13:49;;;;;;;3.87;3.33;;;7.80;71.40;;;;;;4957774;28;94002;-31
2023/04/04 09:16:16;;;;;;;7.25;3.75;;;7.80;70.60;;;;;;4957233;28;94111;-31
2023/04/04 09:18:42;;;;;;;5.65;3.25;;;7.60;70.00;;;;;;4956716;28;95796;-33
2023/04/04 09:21:11;;;;;;;8.68;3.55;;;8.10;72.70;;;;;;4958001;28;95692;-34
2023/04/04 09:23:37;;;;;;;3.78;2.83;;;8.20;72.40;;;;;;4958100;28;93300;-31
2023/04/04 09:26:03;;;;;;;5.03;3.13;;;7.90;66.00;;;;;;4956951;28;93506;-33
2023/04/04 09:28:30;;;;;;;9.00;3.50;;;7.90;68.30;;;;;;4957135;28;94926;-30
2023/04/04 09:30:55;;;;;;;5.07;3.55;;;8.00;69.30;;;;;;4956841;28;94382;-33
2023/04/04 09:33:25;;;;;;;2.60;2.40;;;8.10;69.40;;;;;;4957360;28;93436;-33
2023/04/04 09:35:56;;;;;;;8.35;3.00;;;8.40;69.10;;;;;;4956651;28;92039;-34
2023/04/04 09:38:23;;;;;;;2.58;2.33;;;8.40;69.80;;;;;;4956452;28;96064;-31
2023/04/04 09:40:49;;;;;;;3.50;2.92;;;8.10;67.80;;;;;;4955662;28;94293;-31
2023/04/04 09:43:15;;;;;;;3.22;2.92;;;8.50;68.50;;;;;;4957014;28;95681;-35
2023/04/04 09:45:44;;;;;;;3.38;2.60;;;8.30;67.90;;;;;;4957016;28;94388;-31
2023/04/04 09:48:10;;;;;;;3.33;2.90;;;8.50;68.80;;;;;;4957053;28;94984;-33
2023/04/04 09:50:37;;;;;;;8.10;3.60;;;8.30;66.70;;;;;;4956290;28;94434;-33
2023/04/04 09:53:02;;;;;;;10.18;3.35;;;8.00;67.00;;;;;;4956171;28;93056;-34
2023/04/04 09:55:36;;;;;;;3.78;2.97;;;8.30;67.70;;;;;;4956379;28;92822;-30
2023/04/04 09:58:26;;;;;;;4.72;2.33;;;8.30;64.40;;;;;;4956321;28;93368;-34
2023/04/04 10:00:55;;;;;;;3.38;2.33;;;8.30;68.30;;;;;;4944981;28;94530;-34
2023/04/04 10:03:21;;;;;;;;;;;8.50;67.00;;;;;;4957285;28;94414;-31
2023/04/04 10:05:53;;;;;;;4.07;3.17;;;8.50;65.10;;;;;;4956863;28;93660;-32
2023/04/04 10:08:22;;;;;;;5.43;3.25;;;8.60;67.90;;;;;;4954865;28;95550;-33
2023/04/04 10:10:55;;;;;;;5.53;2.45;;;8.70;65.50;;;;;;4956595;28;94346;-34
2023/04/04 10:13:27;;;;;;;6.57;3.38;;;8.50;62.90;;;;;;4956589;28;94390;-35
2023/04/04 10:15:56;;;;;;;2.97;2.08;;;8.70;65.80;;;;;;4955778;28;94196;-33
2023/04/04 10:18:24;;;;;;;3.78;2.58;;;8.70;64.00;;;;;;4955576;28;94337;-31
2023/04/04 10:20:51;;;;;;;3.40;2.70;;;8.70;65.50;;;;;;4955703;28;94466;-31
2023/04/04 10:23:19;;;;;;;4.28;2.72;;;8.70;63.60;;;;;;4956625;28;93846;-31
2023/04/04 10:25:45;;;;;;;3.23;2.20;;;8.70;64.70;;;;;;4939009;28;92297;-31
2023/04/04 10:28:11;;;;;;;6.75;3.30;;;9.10;68.20;;;;;;4956325;28;94529;-30
2023/04/04 10:30:46;;;;;;;8.32;3.35;;;9.30;68.10;;;;;;4955799;28;95430;-34
2023/04/04 10:33:47;;;;;;;6.47;3.03;;;9.00;65.70;;;;;;4955833;28;95478;-33
2023/04/04 10:36:15;;;;;;;4.10;3.28;;;9.00;64.50;;;;;;4944650;28;92811;-32
2023/04/04 10:38:54;;;;;;;3.13;2.15;;;8.80;60.00;;;;;;4954986;28;95740;-33
2023/04/04 10:41:22;;;;;;;6.22;3.10;;;8.90;64.00;;;;;;4956099;28;96197;-31
2023/04/04 10:43:51;;;;;;;6.87;3.50;;;8.80;64.80;;;;;;4955976;28;94468;-32
2023/04/04 10:46:21;;;;;;;2.50;1.95;;;8.70;62.70;;;;;;4955615;28;92241;-32
2023/04/04 10:48:48;;;;;;;6.45;2.70;;;8.60;58.90;;;;;;4955218;28;96049;-32
2023/04/04 10:51:15;;;;;;;5.13;2.92;;;8.70;63.30;;;;;;4955174;28;94381;-32
2023/04/04 10:53:42;;;;;;;5.80;2.72;;;8.80;63.30;;;;;;4955775;28;94006;-33
2023/04/04 10:56:09;;;;;;;5.63;2.58;;;8.70;60.30;;;;;;4955689;28;94270;-33
2023/04/04 10:58:41;;;;;;;3.70;1.95;;;8.80;61.80;;;;;;4954461;28;95350;-34
2023/04/04 11:01:07;;;;;;;3.92;2.28;;;8.70;60.00;;;;;;4955474;28;93604;-34
2023/04/04 11:04:11;;;;;;;6.90;3.10;;;8.70;62.30;;;;;;4955416;28;94109;-32
2023/04/04 11:07:05;;;;;;;3.30;2.38;;;8.80;62.10;;;;;;4955056;28;94300;-35
2023/04/04 11:09:53;;;;;;;2.67;2.20;;;8.90;59.80;;;;;;4955159;28;94441;-31
2023/04/04 11:12:25;;;;;;;2.30;2.10;;;9.10;61.50;;;;;;4955073;28;94866;-35
2023/04/04 11:15:08;;;;;;;3.08;2.88;;;9.00;61.10;;;;;;4955940;28;94009;-31
2023/04/04 11:17:49;;;;;;;3.28;1.95;;;8.90;58.80;;;;;;4937112;28;92842;-32
2023/04/04 11:20:16;;;;;;;2.38;2.17;;;8.70;58.20;;;;;;4936159;28;94334;-34
2023/04/04 11:22:42;;;;;;;6.15;2.10;;;8.80;57.00;;;;;;4954823;28;94784;-33
2023/04/04 11:25:23;;;;;;;3.13;2.25;;;8.80;56.40;;;;;;4955067;28;95335;-30
2023/04/04 11:27:53;;;;;;;3.75;2.10;;;8.90;58.10;;;;;;4955577;28;94706;-32
2023/04/04 11:30:19;;;;;;;2.55;1.85;;;8.90;57.70;;;;;;4955432;28;94734;-34
2023/04/04 11:32:49;;;;;;;4.80;2.20;;;9.00;57.50;;;;;;4954852;28;94467;-33
2023/04/04 11:35:15;;;;;;;2.83;2.38;;;8.90;56.80;;;;;;4953880;28;94382;-32
2023/04/04 11:37:59;;;;;;;2.10;1.90;;;9.10;56.30;;;;;;4952681;28;93107;-32
2023/04/04 11:40:40;;;;;;;2.88;2.35;;;8.50;57.50;;;;;;4954421;28;94731;-32
2023/04/04 11:43:15;;;;;;;5.68;1.92;;;8.80;56.70;;;;;;5056430;27;89588;-33
2023/04/04 11:45:44;;;;;;;3.17;2.30;;;9.10;59.90;;;;;;5040076;27;89969;-40
2023/04/04 11:48:11;;;;;;;1.98;1.63;;;9.10;55.10;;;;;;5041807;27;88244;-38
2023/04/04 11:50:38;;;;;;;7.95;2.65;;;9.00;55.00;;;;;;5039428;27;89995;-36
2023/04/04 11:53:08;;;;;;;3.97;2.50;;;9.00;54.90;;;;;;5044244;27;88793;-36
2023/04/04 11:55:41;;;;;;;2.08;1.92;;;9.00;56.80;;;;;;5041367;27;89003;-39
2023/04/04 11:58:11;;;;;;;4.10;2.08;;;9.00;54.40;;;;;;5044664;27;88088;-38
2023/04/04 12:00:38;;;;;;;2.65;2.10;;;9.30;56.90;;;;;;5067422;22;90657;-30
2023/04/04 12:03:07;;;;;;;2.45;2.20;;;9.30;58.90;;;;;;5015859;27;89667;-32
2023/04/04 12:05:33;;;;;;;9.70;3.17;;;9.10;55.20;;;;;;5000065;28;88910;-32
2023/04/04 12:08:01;;;;;;;3.70;2.75;;;9.10;55.90;;;;;;5013270;28;89256;-31
2023/04/04 12:10:30;;;;;;;4.22;1.98;;;9.10;54.30;;;;;;4998625;28;90336;-34
2023/04/04 12:12:57;;;;;;;2.03;1.92;;;9.00;54.70;;;;;;5016192;28;88137;-32
2023/04/04 12:15:26;;;;;;;4.05;2.08;;;9.10;56.20;;;;;;5016754;28;89419;-32
2023/04/04 12:17:52;;;;;;;4.10;2.40;;;9.20;55.70;;;;;;5017374;28;89126;-32
2023/04/04 12:20:21;;;;;;;9.25;3.28;;;9.40;56.70;;;;;;5017357;27;90643;-31
2023/04/04 12:22:51;;;;;;;5.00;3.03;;;9.30;60.50;;;;;;5016769;28;89097;-30
2023/04/04 12:25:22;;;;;;;3.22;2.97;;;9.00;55.60;;;;;;5017054;28;87691;-31
2023/04/04 12:27:49;;;;;;;3.97;2.45;;;8.90;56.70;;;;;;5016455;27;87570;-32
2023/04/04 12:30:16;;;;;;;3.80;2.60;;;9.00;59.50;;;;;;5017209;28;90292;-31
2023/04/04 12:32:44;;;;;;;3.45;2.75;;;9.30;60.40;;;;;;5015889;27;89932;-32
2023/04/04 12:35:14;;;;;;;2.67;2.47;;;9.20;58.90;;;;;;5017130;27;88124;-31
2023/04/04 12:38:06;;;;;;;5.40;2.80;;;9.00;58.10;;;;;;5015882;28;89433;-35
2023/04/04 12:40:35;;;;;;;2.65;2.38;;;9.00;57.80;;;;;;5016585;27;91081;-32
2023/04/04 12:43:06;;;;;;;3.10;2.47;;;9.10;55.50;;;;;;5016509;28;89978;-32
2023/04/04 12:45:36;;;;;;;5.40;2.67;;;9.20;58.60;;;;;;5017104;28;88731;-31
2023/04/04 12:48:12;;;;;;;8.48;2.85;;;9.20;58.50;;;;;;5016776;27;89502;-33
2023/04/04 12:51:09;;;;;;;2.72;2.25;;;8.90;57.40;;;;;;5015407;28;88754;-35
2023/04/04 12:53:51;;;;;;;3.50;2.63;;;9.00;59.00;;;;;;4978003;28;89573;-31
2023/04/04 12:56:17;;;;;;;3.28;2.88;;;9.30;58.60;;;;;;5003336;28;89013;-30
2023/04/04 12:58:47;;;;;;;4.93;2.97;;;9.40;58.90;;;;;;5002671;28;87799;-30